sensor_id;sensor_type;location;lat;lon;timestamp;temperature;humidity
11922;DHT22;6021;51.182;3.160;2022-09-16T00:01:11;13.70;1.00
11922;DHT22;6021;51.182;3.160;2022-09-16T00:03:39;13.60;1.00
11922;DHT22;6021;51.182;3.160;2022-09-16T00:06:18;13.60;1.00
11922;DHT22;6021;51.182;3.160;2022-09-16T00:08:42;13.60;1.00
11922;DHT22;6021;51.182;3.160;2022-09-16T00:11:12;13.70;1.00
11922;DHT22;6021;51.182;3.160;2022-09-16T00:13:40;13.50;1.00
11922;DHT22;6021;51.182;3.160;2022-09-16T00:16:11;13.60;1.00
11922;DHT22;6021;51.182;3.160;2022-09-16T00:18:40;13.60;1.00
11922;DHT22;6021;51.182;3.160;2022-09-16T00:21:09;13.60;1.00
11922;DHT22;6021;51.182;3.160;2022-09-16T00:23:38;13.60;1.00
11922;DHT22;6021;51.182;3.160;2022-09-16T00:26:06;13.60;1.00
11922;DHT22;6021;51.182;3.160;2022-09-16T00:28:35;13.60;1.00
11922;DHT22;6021;51.182;3.160;2022-09-16T00:31:03;13.70;1.00
11922;DHT22;6021;51.182;3.160;2022-09-16T00:33:32;13.70;1.00
11922;DHT22;6021;51.182;3.160;2022-09-16T00:38:34;13.60;1.00
11922;DHT22;6021;51.182;3.160;2022-09-16T00:41:03;13.50;1.00
11922;DHT22;6021;51.182;3.160;2022-09-16T00:44:01;13.50;1.00
11922;DHT22;6021;51.182;3.160;2022-09-16T00:46:47;13.40;1.00
11922;DHT22;6021;51.182;3.160;2022-09-16T00:49:21;13.50;1.00
11922;DHT22;6021;51.182;3.160;2022-09-16T00:51:48;13.70;1.00
11922;DHT22;6021;51.182;3.160;2022-09-16T00:54:18;13.60;1.00
11922;DHT22;6021;51.182;3.160;2022-09-16T00:56:49;13.50;1.00
11922;DHT22;6021;51.182;3.160;2022-09-16T00:59:22;13.60;1.00
11922;DHT22;6021;51.182;3.160;2022-09-16T01:01:52;13.50;1.00
11922;DHT22;6021;51.182;3.160;2022-09-16T01:04:29;13.70;1.00
11922;DHT22;6021;51.182;3.160;2022-09-16T01:06:58;13.70;1.00
11922;DHT22;6021;51.182;3.160;2022-09-16T01:09:27;13.70;1.00
11922;DHT22;6021;51.182;3.160;2022-09-16T01:11:56;13.80;1.00
11922;DHT22;6021;51.182;3.160;2022-09-16T01:14:26;13.80;1.00
11922;DHT22;6021;51.182;3.160;2022-09-16T01:32:13;14.00;1.00
11922;DHT22;6021;51.182;3.160;2022-09-16T01:34:52;14.00;1.00
11922;DHT22;6021;51.182;3.160;2022-09-16T01:45:56;13.80;1.00
11922;DHT22;6021;51.182;3.160;2022-09-16T01:51:24;13.90;1.00
11922;DHT22;6021;51.182;3.160;2022-09-16T01:56:43;13.80;1.00
11922;DHT22;6021;51.182;3.160;2022-09-16T02:02:09;13.80;1.00
11922;DHT22;6021;51.182;3.160;2022-09-16T02:04:42;13.80;1.00
11922;DHT22;6021;51.182;3.160;2022-09-16T02:07:10;13.80;1.00
11922;DHT22;6021;51.182;3.160;2022-09-16T02:09:43;13.80;1.00
11922;DHT22;6021;51.182;3.160;2022-09-16T02:12:14;13.90;1.00
11922;DHT22;6021;51.182;3.160;2022-09-16T02:14:46;13.90;1.00
11922;DHT22;6021;51.182;3.160;2022-09-16T02:17:18;14.00;1.00
11922;DHT22;6021;51.182;3.160;2022-09-16T02:20:01;13.90;1.00
11922;DHT22;6021;51.182;3.160;2022-09-16T02:22:33;14.00;1.00
11922;DHT22;6021;51.182;3.160;2022-09-16T02:25:03;14.00;1.00
11922;DHT22;6021;51.182;3.160;2022-09-16T02:27:32;13.90;1.00
11922;DHT22;6021;51.182;3.160;2022-09-16T02:30:07;13.90;1.00
11922;DHT22;6021;51.182;3.160;2022-09-16T02:32:38;14.00;1.00
11922;DHT22;6021;51.182;3.160;2022-09-16T02:35:12;13.90;1.00
11922;DHT22;6021;51.182;3.160;2022-09-16T02:37:48;13.90;1.00
11922;DHT22;6021;51.182;3.160;2022-09-16T02:40:28;14.00;1.00
11922;DHT22;6021;51.182;3.160;2022-09-16T02:42:47;14.10;1.00
11922;DHT22;6021;51.182;3.160;2022-09-16T02:45:16;14.20;1.00
11922;DHT22;6021;51.182;3.160;2022-09-16T02:50:40;14.30;1.00
11922;DHT22;6021;51.182;3.160;2022-09-16T02:55:58;14.20;2.90
11922;DHT22;6021;51.182;3.160;2022-09-16T02:58:27;14.40;7.70
11922;DHT22;6021;51.182;3.160;2022-09-16T03:00:56;14.20;10.50
11922;DHT22;6021;51.182;3.160;2022-09-16T03:03:25;14.50;10.60
11922;DHT22;6021;51.182;3.160;2022-09-16T03:06:17;14.20;4.70
11922;DHT22;6021;51.182;3.160;2022-09-16T03:08:47;14.20;3.10
11922;DHT22;6021;51.182;3.160;2022-09-16T03:11:38;14.20;6.90
11922;DHT22;6021;51.182;3.160;2022-09-16T03:17:26;14.10;14.10
11922;DHT22;6021;51.182;3.160;2022-09-16T03:22:50;13.90;14.80
11922;DHT22;6021;51.182;3.160;2022-09-16T03:25:31;13.90;7.60
11922;DHT22;6021;51.182;3.160;2022-09-16T03:28:15;14.00;10.40
11922;DHT22;6021;51.182;3.160;2022-09-16T03:31:12;14.00;11.30
11922;DHT22;6021;51.182;3.160;2022-09-16T03:33:54;14.10;10.60
11922;DHT22;6021;51.182;3.160;2022-09-16T03:36:25;14.00;12.50
11922;DHT22;6021;51.182;3.160;2022-09-16T03:38:54;13.90;10.50
11922;DHT22;6021;51.182;3.160;2022-09-16T03:41:25;14.10;12.80
11922;DHT22;6021;51.182;3.160;2022-09-16T03:43:55;13.90;11.70
11922;DHT22;6021;51.182;3.160;2022-09-16T03:46:24;14.00;17.50
11922;DHT22;6021;51.182;3.160;2022-09-16T03:48:55;14.10;15.20
11922;DHT22;6021;51.182;3.160;2022-09-16T03:51:24;14.10;25.30
11922;DHT22;6021;51.182;3.160;2022-09-16T03:53:53;14.00;33.30
11922;DHT22;6021;51.182;3.160;2022-09-16T03:56:22;14.00;44.30
11922;DHT22;6021;51.182;3.160;2022-09-16T03:58:51;14.00;52.80
11922;DHT22;6021;51.182;3.160;2022-09-16T04:01:19;14.10;51.10
11922;DHT22;6021;51.182;3.160;2022-09-16T04:03:48;14.10;52.70
11922;DHT22;6021;51.182;3.160;2022-09-16T04:06:16;14.10;42.70
11922;DHT22;6021;51.182;3.160;2022-09-16T04:08:44;14.10;47.50
11922;DHT22;6021;51.182;3.160;2022-09-16T04:11:13;14.00;43.30
11922;DHT22;6021;51.182;3.160;2022-09-16T04:13:41;13.90;59.30
11922;DHT22;6021;51.182;3.160;2022-09-16T04:16:10;13.80;94.30
11922;DHT22;6021;51.182;3.160;2022-09-16T04:18:38;13.70;99.90
11922;DHT22;6021;51.182;3.160;2022-09-16T04:21:06;13.50;99.90
11922;DHT22;6021;51.182;3.160;2022-09-16T04:23:35;13.80;99.90
11922;DHT22;6021;51.182;3.160;2022-09-16T04:26:03;13.40;99.90
11922;DHT22;6021;51.182;3.160;2022-09-16T04:28:32;13.30;99.90
11922;DHT22;6021;51.182;3.160;2022-09-16T04:31:04;13.20;99.90
11922;DHT22;6021;51.182;3.160;2022-09-16T04:33:34;13.40;99.90
11922;DHT22;6021;51.182;3.160;2022-09-16T04:36:04;13.30;99.90
11922;DHT22;6021;51.182;3.160;2022-09-16T04:38:35;13.30;99.90
11922;DHT22;6021;51.182;3.160;2022-09-16T04:41:09;13.30;99.90
11922;DHT22;6021;51.182;3.160;2022-09-16T04:43:38;13.10;99.90
11922;DHT22;6021;51.182;3.160;2022-09-16T04:46:07;13.00;99.90
11922;DHT22;6021;51.182;3.160;2022-09-16T04:48:35;13.00;99.90
11922;DHT22;6021;51.182;3.160;2022-09-16T04:51:06;13.00;99.90
11922;DHT22;6021;51.182;3.160;2022-09-16T04:53:38;13.10;99.90
11922;DHT22;6021;51.182;3.160;2022-09-16T04:56:09;12.90;99.90
11922;DHT22;6021;51.182;3.160;2022-09-16T04:58:45;12.80;99.90
11922;DHT22;6021;51.182;3.160;2022-09-16T05:01:11;12.80;99.90
11922;DHT22;6021;51.182;3.160;2022-09-16T05:03:42;12.80;99.90
11922;DHT22;6021;51.182;3.160;2022-09-16T05:06:13;12.90;99.90
11922;DHT22;6021;51.182;3.160;2022-09-16T05:08:42;12.80;99.90
11922;DHT22;6021;51.182;3.160;2022-09-16T05:11:13;13.00;99.90
11922;DHT22;6021;51.182;3.160;2022-09-16T05:13:41;12.80;99.90
11922;DHT22;6021;51.182;3.160;2022-09-16T05:16:12;12.90;99.90
11922;DHT22;6021;51.182;3.160;2022-09-16T05:18:42;13.00;99.90
11922;DHT22;6021;51.182;3.160;2022-09-16T05:21:14;13.00;99.90
11922;DHT22;6021;51.182;3.160;2022-09-16T05:23:42;13.00;99.90
11922;DHT22;6021;51.182;3.160;2022-09-16T05:26:18;13.10;99.90
11922;DHT22;6021;51.182;3.160;2022-09-16T05:28:42;13.10;99.90
11922;DHT22;6021;51.182;3.160;2022-09-16T05:31:28;13.10;99.90
11922;DHT22;6021;51.182;3.160;2022-09-16T05:34:09;13.20;99.90
11922;DHT22;6021;51.182;3.160;2022-09-16T05:36:35;13.20;99.90
11922;DHT22;6021;51.182;3.160;2022-09-16T05:39:08;13.30;99.90
11922;DHT22;6021;51.182;3.160;2022-09-16T05:41:38;13.30;99.90
11922;DHT22;6021;51.182;3.160;2022-09-16T05:44:06;13.30;99.90
11922;DHT22;6021;51.182;3.160;2022-09-16T05:46:35;13.30;99.90
11922;DHT22;6021;51.182;3.160;2022-09-16T05:49:03;13.40;99.90
11922;DHT22;6021;51.182;3.160;2022-09-16T05:51:32;13.30;99.90
11922;DHT22;6021;51.182;3.160;2022-09-16T05:54:00;13.30;99.90
11922;DHT22;6021;51.182;3.160;2022-09-16T05:56:29;13.30;99.90
11922;DHT22;6021;51.182;3.160;2022-09-16T05:58:58;13.10;99.90
11922;DHT22;6021;51.182;3.160;2022-09-16T06:01:32;13.30;99.90
11922;DHT22;6021;51.182;3.160;2022-09-16T06:04:04;13.30;99.90
11922;DHT22;6021;51.182;3.160;2022-09-16T06:06:33;13.30;99.90
11922;DHT22;6021;51.182;3.160;2022-09-16T06:09:17;13.40;99.90
11922;DHT22;6021;51.182;3.160;2022-09-16T06:11:50;13.40;99.90
11922;DHT22;6021;51.182;3.160;2022-09-16T06:14:19;13.40;99.90
11922;DHT22;6021;51.182;3.160;2022-09-16T06:16:49;13.40;99.90
11922;DHT22;6021;51.182;3.160;2022-09-16T06:19:18;13.50;99.90
11922;DHT22;6021;51.182;3.160;2022-09-16T06:21:46;13.70;99.90
11922;DHT22;6021;51.182;3.160;2022-09-16T06:24:16;13.70;99.90
11922;DHT22;6021;51.182;3.160;2022-09-16T06:26:46;13.70;99.90
11922;DHT22;6021;51.182;3.160;2022-09-16T06:29:16;13.80;99.90
11922;DHT22;6021;51.182;3.160;2022-09-16T06:31:44;13.90;96.30
11922;DHT22;6021;51.182;3.160;2022-09-16T06:34:16;13.80;93.90
11922;DHT22;6021;51.182;3.160;2022-09-16T06:36:45;13.80;92.50
11922;DHT22;6021;51.182;3.160;2022-09-16T06:39:14;13.80;92.30
11922;DHT22;6021;51.182;3.160;2022-09-16T06:41:43;14.00;91.00
11922;DHT22;6021;51.182;3.160;2022-09-16T06:44:12;13.70;87.70
11922;DHT22;6021;51.182;3.160;2022-09-16T06:46:40;13.60;90.70
11922;DHT22;6021;51.182;3.160;2022-09-16T06:49:10;14.00;84.00
11922;DHT22;6021;51.182;3.160;2022-09-16T06:51:39;13.60;83.50
11922;DHT22;6021;51.182;3.160;2022-09-16T06:54:08;13.80;99.90
11922;DHT22;6021;51.182;3.160;2022-09-16T06:56:37;13.90;99.90
11922;DHT22;6021;51.182;3.160;2022-09-16T06:59:07;13.90;99.90
11922;DHT22;6021;51.182;3.160;2022-09-16T07:04:12;14.00;99.90
11922;DHT22;6021;51.182;3.160;2022-09-16T07:09:16;13.80;99.90
11922;DHT22;6021;51.182;3.160;2022-09-16T07:11:44;13.80;99.90
11922;DHT22;6021;51.182;3.160;2022-09-16T07:14:12;13.80;99.90
11922;DHT22;6021;51.182;3.160;2022-09-16T07:16:40;14.10;99.90
11922;DHT22;6021;51.182;3.160;2022-09-16T07:19:09;13.60;99.90
11922;DHT22;6021;51.182;3.160;2022-09-16T07:21:37;13.60;99.90
11922;DHT22;6021;51.182;3.160;2022-09-16T07:24:10;13.70;99.90
11922;DHT22;6021;51.182;3.160;2022-09-16T07:26:40;13.70;99.90
11922;DHT22;6021;51.182;3.160;2022-09-16T07:29:16;13.70;99.90
11922;DHT22;6021;51.182;3.160;2022-09-16T07:31:40;13.60;99.90
11922;DHT22;6021;51.182;3.160;2022-09-16T07:34:10;13.70;99.90
11922;DHT22;6021;51.182;3.160;2022-09-16T07:36:46;13.50;99.90
11922;DHT22;6021;51.182;3.160;2022-09-16T07:39:11;13.50;99.90
11922;DHT22;6021;51.182;3.160;2022-09-16T07:41:41;13.50;99.90
11922;DHT22;6021;51.182;3.160;2022-09-16T07:44:12;13.70;99.90
11922;DHT22;6021;51.182;3.160;2022-09-16T07:46:41;13.70;99.90
11922;DHT22;6021;51.182;3.160;2022-09-16T07:49:11;13.60;99.90
11922;DHT22;6021;51.182;3.160;2022-09-16T07:51:40;13.60;99.90
11922;DHT22;6021;51.182;3.160;2022-09-16T07:54:12;13.60;99.90
11922;DHT22;6021;51.182;3.160;2022-09-16T07:56:41;13.50;99.90
11922;DHT22;6021;51.182;3.160;2022-09-16T07:59:15;13.50;99.90
11922;DHT22;6021;51.182;3.160;2022-09-16T08:01:44;13.70;99.90
11922;DHT22;6021;51.182;3.160;2022-09-16T08:04:12;13.80;99.90
11922;DHT22;6021;51.182;3.160;2022-09-16T08:06:40;13.70;99.90
11922;DHT22;6021;51.182;3.160;2022-09-16T08:09:09;13.70;99.90
11922;DHT22;6021;51.182;3.160;2022-09-16T08:11:37;13.80;99.90
11922;DHT22;6021;51.182;3.160;2022-09-16T08:14:06;13.80;99.90
11922;DHT22;6021;51.182;3.160;2022-09-16T08:16:34;13.70;99.90
11922;DHT22;6021;51.182;3.160;2022-09-16T08:19:02;13.80;99.90
11922;DHT22;6021;51.182;3.160;2022-09-16T08:21:31;13.80;99.90
11922;DHT22;6021;51.182;3.160;2022-09-16T08:23:59;13.80;99.90
11922;DHT22;6021;51.182;3.160;2022-09-16T08:26:28;13.80;99.90
11922;DHT22;6021;51.182;3.160;2022-09-16T08:28:56;13.70;99.90
11922;DHT22;6021;51.182;3.160;2022-09-16T08:31:24;13.90;99.90
11922;DHT22;6021;51.182;3.160;2022-09-16T08:33:53;14.10;99.90
11922;DHT22;6021;51.182;3.160;2022-09-16T08:36:23;14.00;99.90
11922;DHT22;6021;51.182;3.160;2022-09-16T08:38:54;14.00;99.90
11922;DHT22;6021;51.182;3.160;2022-09-16T08:49:57;13.90;99.90
11922;DHT22;6021;51.182;3.160;2022-09-16T08:52:36;14.00;99.90
11922;DHT22;6021;51.182;3.160;2022-09-16T08:57:56;14.20;99.90
11922;DHT22;6021;51.182;3.160;2022-09-16T09:00:24;14.20;99.90
11922;DHT22;6021;51.182;3.160;2022-09-16T09:03:01;14.40;79.30
11922;DHT22;6021;51.182;3.160;2022-09-16T09:10:52;14.60;64.90
11922;DHT22;6021;51.182;3.160;2022-09-16T09:16:35;14.60;94.80
11922;DHT22;6021;51.182;3.160;2022-09-16T09:19:52;14.60;92.20
11922;DHT22;6021;51.182;3.160;2022-09-16T09:24:53;14.80;90.80
11922;DHT22;6021;51.182;3.160;2022-09-16T09:27:32;14.70;87.90
11922;DHT22;6021;51.182;3.160;2022-09-16T09:30:07;14.70;91.40
11922;DHT22;6021;51.182;3.160;2022-09-16T09:35:26;14.90;51.20
11922;DHT22;6021;51.182;3.160;2022-09-16T09:40:50;14.80;35.30
11922;DHT22;6021;51.182;3.160;2022-09-16T09:43:46;14.60;39.40
11922;DHT22;6021;51.182;3.160;2022-09-16T09:46:30;14.70;28.30
11922;DHT22;6021;51.182;3.160;2022-09-16T09:48:59;14.70;26.50
11922;DHT22;6021;51.182;3.160;2022-09-16T09:51:32;14.90;28.30
11922;DHT22;6021;51.182;3.160;2022-09-16T09:54:12;14.70;25.60
11922;DHT22;6021;51.182;3.160;2022-09-16T09:56:43;14.90;18.10
11922;DHT22;6021;51.182;3.160;2022-09-16T10:01:53;14.90;27.90
11922;DHT22;6021;51.182;3.160;2022-09-16T10:04:22;15.00;17.80
11922;DHT22;6021;51.182;3.160;2022-09-16T10:06:53;15.00;11.70
11922;DHT22;6021;51.182;3.160;2022-09-16T10:09:22;15.20;1.00
11922;DHT22;6021;51.182;3.160;2022-09-16T10:11:53;15.40;1.00
11922;DHT22;6021;51.182;3.160;2022-09-16T10:14:29;15.50;1.00
11922;DHT22;6021;51.182;3.160;2022-09-16T10:16:54;15.60;1.00
11922;DHT22;6021;51.182;3.160;2022-09-16T10:19:24;15.60;1.00
11922;DHT22;6021;51.182;3.160;2022-09-16T10:22:21;15.50;1.00
11922;DHT22;6021;51.182;3.160;2022-09-16T10:24:51;15.50;1.00
11922;DHT22;6021;51.182;3.160;2022-09-16T10:30:14;15.60;1.00
11922;DHT22;6021;51.182;3.160;2022-09-16T10:33:00;15.60;1.00
11922;DHT22;6021;51.182;3.160;2022-09-16T10:35:33;15.70;1.00
11922;DHT22;6021;51.182;3.160;2022-09-16T10:38:19;15.80;1.00
11922;DHT22;6021;51.182;3.160;2022-09-16T10:40:56;15.70;1.00
11922;DHT22;6021;51.182;3.160;2022-09-16T10:43:28;15.80;1.00
11922;DHT22;6021;51.182;3.160;2022-09-16T10:45:57;15.80;1.00
11922;DHT22;6021;51.182;3.160;2022-09-16T10:48:27;15.90;1.00
11922;DHT22;6021;51.182;3.160;2022-09-16T10:50:58;15.80;1.00
11922;DHT22;6021;51.182;3.160;2022-09-16T10:53:36;15.80;1.00
11922;DHT22;6021;51.182;3.160;2022-09-16T10:56:14;15.60;1.00
11922;DHT22;6021;51.182;3.160;2022-09-16T10:58:36;15.60;1.00
11922;DHT22;6021;51.182;3.160;2022-09-16T11:01:24;15.60;1.00
11922;DHT22;6021;51.182;3.160;2022-09-16T11:03:57;15.50;1.00
11922;DHT22;6021;51.182;3.160;2022-09-16T11:12:21;15.60;1.00
11922;DHT22;6021;51.182;3.160;2022-09-16T11:20:09;15.50;1.00
11922;DHT22;6021;51.182;3.160;2022-09-16T11:22:56;15.60;1.00
11922;DHT22;6021;51.182;3.160;2022-09-16T11:33:54;15.50;1.00
11922;DHT22;6021;51.182;3.160;2022-09-16T11:42:17;15.50;1.00
11922;DHT22;6021;51.182;3.160;2022-09-16T11:47:24;15.60;1.00
11922;DHT22;6021;51.182;3.160;2022-09-16T11:58:53;15.60;1.00
11922;DHT22;6021;51.182;3.160;2022-09-16T12:04:48;15.50;1.00
11922;DHT22;6021;51.182;3.160;2022-09-16T12:06:39;15.50;1.00
11922;DHT22;6021;51.182;3.160;2022-09-16T12:09:11;15.50;1.00
11922;DHT22;6021;51.182;3.160;2022-09-16T12:11:46;15.50;1.00
11922;DHT22;6021;51.182;3.160;2022-09-16T12:14:24;15.60;1.00
11922;DHT22;6021;51.182;3.160;2022-09-16T12:17:00;15.70;1.00
11922;DHT22;6021;51.182;3.160;2022-09-16T12:22:07;15.40;1.00
11922;DHT22;6021;51.182;3.160;2022-09-16T12:24:57;15.40;1.00
11922;DHT22;6021;51.182;3.160;2022-09-16T12:27:42;15.20;1.00
11922;DHT22;6021;51.182;3.160;2022-09-16T12:30:17;15.20;1.00
11922;DHT22;6021;51.182;3.160;2022-09-16T12:33:08;15.20;1.00
11922;DHT22;6021;51.182;3.160;2022-09-16T12:35:55;15.10;1.00
11922;DHT22;6021;51.182;3.160;2022-09-16T12:38:25;14.90;1.00
11922;DHT22;6021;51.182;3.160;2022-09-16T12:41:05;14.70;7.40
11922;DHT22;6021;51.182;3.160;2022-09-16T12:46:22;14.60;41.00
11922;DHT22;6021;51.182;3.160;2022-09-16T12:52:07;14.60;76.20
11922;DHT22;6021;51.182;3.160;2022-09-16T12:54:43;14.40;51.70
11922;DHT22;6021;51.182;3.160;2022-09-16T13:00:04;14.50;50.00
11922;DHT22;6021;51.182;3.160;2022-09-16T13:02:48;14.50;29.40
11922;DHT22;6021;51.182;3.160;2022-09-16T13:05:26;14.60;1.00
11922;DHT22;6021;51.182;3.160;2022-09-16T13:07:56;14.60;5.70
11922;DHT22;6021;51.182;3.160;2022-09-16T13:10:30;14.70;10.70
11922;DHT22;6021;51.182;3.160;2022-09-16T13:13:00;14.80;1.00
11922;DHT22;6021;51.182;3.160;2022-09-16T13:15:37;14.80;1.00
11922;DHT22;6021;51.182;3.160;2022-09-16T13:20:57;14.80;1.00
11922;DHT22;6021;51.182;3.160;2022-09-16T13:23:30;14.70;1.00
11922;DHT22;6021;51.182;3.160;2022-09-16T13:26:05;14.60;1.00
11922;DHT22;6021;51.182;3.160;2022-09-16T13:28:41;14.50;1.00
11922;DHT22;6021;51.182;3.160;2022-09-16T13:36:29;14.80;1.00
11922;DHT22;6021;51.182;3.160;2022-09-16T13:39:10;14.80;1.00
11922;DHT22;6021;51.182;3.160;2022-09-16T13:41:45;14.80;1.00
11922;DHT22;6021;51.182;3.160;2022-09-16T13:44:48;15.00;1.00
11922;DHT22;6021;51.182;3.160;2022-09-16T13:52:22;15.20;1.00
11922;DHT22;6021;51.182;3.160;2022-09-16T13:54:51;15.20;1.00
11922;DHT22;6021;51.182;3.160;2022-09-16T14:00:12;15.30;1.00
11922;DHT22;6021;51.182;3.160;2022-09-16T14:05:36;15.50;1.00
11922;DHT22;6021;51.182;3.160;2022-09-16T14:08:25;15.50;1.00
11922;DHT22;6021;51.182;3.160;2022-09-16T14:13:39;15.50;1.00
11922;DHT22;6021;51.182;3.160;2022-09-16T14:16:03;15.50;1.00
11922;DHT22;6021;51.182;3.160;2022-09-16T14:18:33;15.30;1.00
11922;DHT22;6021;51.182;3.160;2022-09-16T14:23:39;14.50;23.40
11922;DHT22;6021;51.182;3.160;2022-09-16T14:26:15;14.40;77.70
11922;DHT22;6021;51.182;3.160;2022-09-16T14:28:44;14.10;99.90
11922;DHT22;6021;51.182;3.160;2022-09-16T14:33:57;13.70;99.90
11922;DHT22;6021;51.182;3.160;2022-09-16T14:36:30;13.60;99.90
11922;DHT22;6021;51.182;3.160;2022-09-16T14:39:13;13.50;99.90
11922;DHT22;6021;51.182;3.160;2022-09-16T14:41:52;13.30;90.30
11922;DHT22;6021;51.182;3.160;2022-09-16T14:45:05;13.20;99.90
11922;DHT22;6021;51.182;3.160;2022-09-16T14:46:58;13.30;99.90
11922;DHT22;6021;51.182;3.160;2022-09-16T14:49:28;13.30;93.70
11922;DHT22;6021;51.182;3.160;2022-09-16T14:54:27;13.20;95.50
11922;DHT22;6021;51.182;3.160;2022-09-16T14:57:06;13.10;63.40
11922;DHT22;6021;51.182;3.160;2022-09-16T14:59:37;13.00;90.20
11922;DHT22;6021;51.182;3.160;2022-09-16T15:04:45;13.00;99.90
11922;DHT22;6021;51.182;3.160;2022-09-16T15:07:36;13.30;99.90
11922;DHT22;6021;51.182;3.160;2022-09-16T15:10:08;12.90;99.90
11922;DHT22;6021;51.182;3.160;2022-09-16T15:12:47;12.90;99.90
11922;DHT22;6021;51.182;3.160;2022-09-16T15:15:24;12.90;99.90
11922;DHT22;6021;51.182;3.160;2022-09-16T15:18:19;12.90;99.90
11922;DHT22;6021;51.182;3.160;2022-09-16T15:20:39;13.30;99.90
11922;DHT22;6021;51.182;3.160;2022-09-16T15:23:19;12.80;99.90
11922;DHT22;6021;51.182;3.160;2022-09-16T15:25:56;12.70;99.90
11922;DHT22;6021;51.182;3.160;2022-09-16T15:28:23;12.80;99.90
11922;DHT22;6021;51.182;3.160;2022-09-16T15:30:53;12.80;99.30
11922;DHT22;6021;51.182;3.160;2022-09-16T15:33:36;12.80;84.10
11922;DHT22;6021;51.182;3.160;2022-09-16T15:36:05;12.70;65.50
11922;DHT22;6021;51.182;3.160;2022-09-16T15:38:34;12.70;64.20
11922;DHT22;6021;51.182;3.160;2022-09-16T15:41:04;12.70;79.20
11922;DHT22;6021;51.182;3.160;2022-09-16T15:43:38;12.80;48.50
11922;DHT22;6021;51.182;3.160;2022-09-16T15:46:14;12.70;53.50
11922;DHT22;6021;51.182;3.160;2022-09-16T15:49:00;13.20;28.20
11922;DHT22;6021;51.182;3.160;2022-09-16T15:51:37;13.00;43.40
11922;DHT22;6021;51.182;3.160;2022-09-16T15:57:07;12.90;76.70
11922;DHT22;6021;51.182;3.160;2022-09-16T15:59:47;12.80;99.90
11922;DHT22;6021;51.182;3.160;2022-09-16T16:02:23;12.70;99.90
11922;DHT22;6021;51.182;3.160;2022-09-16T16:04:49;12.60;99.90
11922;DHT22;6021;51.182;3.160;2022-09-16T16:12:23;12.40;99.90
11922;DHT22;6021;51.182;3.160;2022-09-16T16:14:53;12.20;99.90
11922;DHT22;6021;51.182;3.160;2022-09-16T16:17:21;12.20;99.90
11922;DHT22;6021;51.182;3.160;2022-09-16T16:19:51;12.00;99.90
11922;DHT22;6021;51.182;3.160;2022-09-16T16:22:23;11.90;99.90
11922;DHT22;6021;51.182;3.160;2022-09-16T16:24:51;11.70;99.90
11922;DHT22;6021;51.182;3.160;2022-09-16T16:27:19;12.00;99.90
11922;DHT22;6021;51.182;3.160;2022-09-16T16:29:48;11.90;99.90
11922;DHT22;6021;51.182;3.160;2022-09-16T16:32:17;11.80;99.90
11922;DHT22;6021;51.182;3.160;2022-09-16T16:34:49;12.10;99.90
11922;DHT22;6021;51.182;3.160;2022-09-16T16:37:18;12.00;99.90
11922;DHT22;6021;51.182;3.160;2022-09-16T16:39:46;12.00;99.90
11922;DHT22;6021;51.182;3.160;2022-09-16T16:42:15;12.20;99.90
11922;DHT22;6021;51.182;3.160;2022-09-16T16:44:43;12.00;99.90
11922;DHT22;6021;51.182;3.160;2022-09-16T16:47:12;12.00;99.90
11922;DHT22;6021;51.182;3.160;2022-09-16T16:49:40;12.20;99.90
11922;DHT22;6021;51.182;3.160;2022-09-16T16:52:09;12.00;99.90
11922;DHT22;6021;51.182;3.160;2022-09-16T16:54:37;12.00;99.90
11922;DHT22;6021;51.182;3.160;2022-09-16T16:57:06;11.80;99.90
11922;DHT22;6021;51.182;3.160;2022-09-16T16:59:35;11.90;99.90
11922;DHT22;6021;51.182;3.160;2022-09-16T17:07:17;11.70;99.90
11922;DHT22;6021;51.182;3.160;2022-09-16T17:09:46;11.70;99.90
11922;DHT22;6021;51.182;3.160;2022-09-16T17:12:15;11.90;99.90
11922;DHT22;6021;51.182;3.160;2022-09-16T17:14:44;11.90;99.90
11922;DHT22;6021;51.182;3.160;2022-09-16T17:17:12;11.90;99.90
11922;DHT22;6021;51.182;3.160;2022-09-16T17:19:41;11.90;99.90
11922;DHT22;6021;51.182;3.160;2022-09-16T17:22:10;11.90;99.90
11922;DHT22;6021;51.182;3.160;2022-09-16T17:24:38;11.90;99.90
11922;DHT22;6021;51.182;3.160;2022-09-16T17:27:07;11.50;99.90
11922;DHT22;6021;51.182;3.160;2022-09-16T17:29:35;11.40;99.90
11922;DHT22;6021;51.182;3.160;2022-09-16T17:32:03;11.50;99.90
11922;DHT22;6021;51.182;3.160;2022-09-16T17:34:33;11.50;99.90
11922;DHT22;6021;51.182;3.160;2022-09-16T17:37:02;11.70;99.90
11922;DHT22;6021;51.182;3.160;2022-09-16T17:39:30;11.60;99.90
11922;DHT22;6021;51.182;3.160;2022-09-16T17:41:58;11.50;99.90
11922;DHT22;6021;51.182;3.160;2022-09-16T17:44:27;11.70;99.90
11922;DHT22;6021;51.182;3.160;2022-09-16T17:46:55;11.80;99.90
11922;DHT22;6021;51.182;3.160;2022-09-16T17:49:23;11.80;99.90
11922;DHT22;6021;51.182;3.160;2022-09-16T17:51:52;11.90;99.90
11922;DHT22;6021;51.182;3.160;2022-09-16T17:54:21;11.80;99.90
11922;DHT22;6021;51.182;3.160;2022-09-16T17:56:50;11.80;99.90
11922;DHT22;6021;51.182;3.160;2022-09-16T17:59:19;11.60;99.90
11922;DHT22;6021;51.182;3.160;2022-09-16T18:01:50;11.60;99.90
11922;DHT22;6021;51.182;3.160;2022-09-16T18:04:18;11.50;99.90
11922;DHT22;6021;51.182;3.160;2022-09-16T18:06:47;11.90;99.90
11922;DHT22;6021;51.182;3.160;2022-09-16T18:09:17;11.50;99.90
11922;DHT22;6021;51.182;3.160;2022-09-16T18:11:45;11.40;99.90
11922;DHT22;6021;51.182;3.160;2022-09-16T18:14:14;11.60;99.90
11922;DHT22;6021;51.182;3.160;2022-09-16T18:19:19;11.70;99.90
11922;DHT22;6021;51.182;3.160;2022-09-16T18:21:48;11.60;99.90
11922;DHT22;6021;51.182;3.160;2022-09-16T18:24:18;11.50;99.90
11922;DHT22;6021;51.182;3.160;2022-09-16T18:26:47;11.70;99.90
11922;DHT22;6021;51.182;3.160;2022-09-16T18:29:15;11.50;99.90
11922;DHT22;6021;51.182;3.160;2022-09-16T18:31:47;11.40;99.90
11922;DHT22;6021;51.182;3.160;2022-09-16T18:34:16;11.50;99.90
11922;DHT22;6021;51.182;3.160;2022-09-16T18:36:44;11.50;99.90
11922;DHT22;6021;51.182;3.160;2022-09-16T18:39:14;11.50;99.90
11922;DHT22;6021;51.182;3.160;2022-09-16T18:41:45;11.60;99.90
11922;DHT22;6021;51.182;3.160;2022-09-16T18:44:18;11.50;99.90
11922;DHT22;6021;51.182;3.160;2022-09-16T18:46:47;11.40;99.90
11922;DHT22;6021;51.182;3.160;2022-09-16T18:49:16;11.40;99.90
11922;DHT22;6021;51.182;3.160;2022-09-16T18:51:47;11.20;99.90
11922;DHT22;6021;51.182;3.160;2022-09-16T18:54:28;11.10;99.90
11922;DHT22;6021;51.182;3.160;2022-09-16T18:56:55;11.20;99.90
11922;DHT22;6021;51.182;3.160;2022-09-16T18:59:28;11.00;99.90
11922;DHT22;6021;51.182;3.160;2022-09-16T19:04:30;11.20;99.90
11922;DHT22;6021;51.182;3.160;2022-09-16T19:07:01;11.30;99.90
11922;DHT22;6021;51.182;3.160;2022-09-16T19:09:33;11.10;99.90
11922;DHT22;6021;51.182;3.160;2022-09-16T19:12:11;11.20;99.90
11922;DHT22;6021;51.182;3.160;2022-09-16T19:14:40;11.10;99.90
11922;DHT22;6021;51.182;3.160;2022-09-16T19:17:08;11.10;99.90
11922;DHT22;6021;51.182;3.160;2022-09-16T19:19:38;11.10;99.90
11922;DHT22;6021;51.182;3.160;2022-09-16T19:22:06;11.00;99.90
11922;DHT22;6021;51.182;3.160;2022-09-16T19:24:36;11.00;99.90
11922;DHT22;6021;51.182;3.160;2022-09-16T19:27:04;10.90;99.90